createdAt,value
2023-01-20T00:01:09.550Z,78.32
2023-01-20T00:03:36.618Z,74.47
2023-01-20T00:06:03.574Z,67.68
2023-01-20T00:08:30.125Z,75.03
2023-01-20T00:10:56.708Z,74.82
2023-01-20T00:13:23.345Z,71.13
2023-01-20T00:15:49.863Z,68.65
2023-01-20T00:18:16.382Z,71.05
2023-01-20T00:20:42.935Z,74.40
2023-01-20T00:23:09.464Z,79.63
2023-01-20T00:25:36.630Z,80.63
2023-01-20T00:28:03.630Z,63.15
2023-01-20T00:30:30.469Z,76.95
2023-01-20T00:32:57.049Z,77.28
2023-01-20T00:35:23.614Z,64.20
2023-01-20T00:37:50.181Z,80.65
2023-01-20T00:40:16.925Z,84.47
2023-01-20T00:42:43.456Z,79.60
2023-01-20T00:45:11.030Z,77.45
2023-01-20T00:47:38.049Z,85.97
2023-01-20T00:50:04.989Z,78.95
2023-01-20T00:52:31.524Z,75.53
2023-01-20T00:54:57.991Z,96.43
2023-01-20T00:57:24.546Z,80.30
2023-01-20T00:59:51.045Z,88.72
2023-01-20T01:02:17.671Z,91.80
2023-01-20T01:04:44.557Z,93.63
2023-01-20T01:07:11.075Z,89.53
2023-01-20T01:09:37.628Z,98.97
2023-01-20T01:12:04.134Z,81.43
2023-01-20T01:14:32.291Z,105.68
2023-01-20T01:16:58.811Z,91.55
2023-01-20T01:19:25.424Z,86.85
2023-01-20T01:21:51.995Z,103.25
2023-01-20T01:24:18.572Z,91.32
2023-01-20T01:26:45.163Z,90.05
2023-01-20T01:29:11.745Z,101.30
2023-01-20T01:31:39.004Z,113.55
2023-01-20T01:34:05.587Z,112.38
2023-01-20T01:36:32.259Z,107.80
2023-01-20T01:38:59.303Z,106.68
2023-01-20T01:41:25.966Z,104.75
2023-01-20T01:44:05.531Z,104.30
2023-01-20T01:46:32.302Z,100.10
2023-01-20T01:49:01.325Z,100.53
2023-01-20T01:51:39.009Z,101.03
2023-01-20T01:54:09.795Z,109.55
2023-01-20T01:56:37.324Z,103.82
2023-01-20T01:59:04.558Z,101.65
2023-01-20T02:01:35.503Z,110.05
2023-01-20T02:04:09.139Z,108.43
2023-01-20T02:06:39.494Z,109.72
2023-01-20T02:09:06.200Z,118.90
2023-01-20T02:11:37.261Z,102.45
2023-01-20T02:16:35.078Z,100.18
2023-01-20T02:19:06.525Z,94.20
2023-01-20T02:22:10.367Z,108.75
2023-01-20T02:25:02.875Z,108.30
2023-01-20T02:28:06.926Z,102.72
2023-01-20T02:30:39.116Z,102.95
2023-01-20T02:33:10.890Z,107.65
2023-01-20T02:35:50.052Z,102.15
2023-01-20T02:38:25.662Z,95.85
2023-01-20T02:41:17.754Z,90.22
2023-01-20T02:43:52.004Z,90.45
2023-01-20T02:46:25.831Z,93.60
2023-01-20T02:49:21.117Z,103.15
2023-01-20T02:51:54.405Z,88.03
2023-01-20T02:54:21.549Z,87.10
2023-01-20T02:56:48.758Z,91.25
2023-01-20T02:59:18.305Z,79.85
2023-01-20T03:01:51.473Z,81.53
2023-01-20T03:04:21.657Z,92.53
2023-01-20T03:06:51.132Z,79.60
2023-01-20T03:09:21.388Z,77.28
2023-01-20T03:11:59.035Z,80.73
2023-01-20T03:14:25.524Z,82.30
2023-01-20T03:16:52.281Z,72.13
2023-01-20T03:19:20.547Z,76.00
2023-01-20T03:21:47.524Z,76.80
2023-01-20T03:24:14.094Z,75.18
2023-01-20T03:26:40.694Z,84.70
2023-01-20T03:29:11.384Z,81.60
2023-01-20T03:31:45.025Z,74.15
2023-01-20T03:34:14.453Z,76.13
2023-01-20T03:36:42.851Z,64.97
2023-01-20T03:39:09.542Z,69.65
2023-01-20T03:42:14.224Z,77.78
2023-01-20T03:45:11.073Z,76.90
2023-01-20T03:47:47.435Z,72.55
2023-01-20T03:50:39.111Z,70.80
2023-01-20T03:53:33.661Z,78.60
2023-01-20T03:56:06.319Z,81.32
2023-01-20T03:58:35.286Z,76.75
2023-01-20T04:01:17.952Z,74.18
2023-01-20T04:03:47.460Z,72.32
2023-01-20T04:06:15.094Z,77.72
2023-01-20T04:08:48.426Z,73.45
2023-01-20T04:11:15.021Z,82.65
2023-01-20T04:13:41.550Z,81.68
2023-01-20T04:16:15.870Z,80.45
2023-01-20T04:18:45.395Z,77.10
2023-01-20T04:21:18.050Z,73.47
2023-01-20T04:23:54.505Z,70.07
2023-01-20T04:26:21.041Z,74.43
2023-01-20T04:28:47.561Z,88.15
2023-01-20T04:31:29.250Z,78.80
2023-01-20T04:33:56.810Z,73.10
2023-01-20T04:36:23.386Z,81.10
2023-01-20T04:38:50.065Z,80.45
2023-01-20T04:41:16.529Z,76.47
2023-01-20T04:43:44.947Z,80.40
2023-01-20T04:46:12.733Z,68.80
2023-01-20T04:48:39.370Z,80.53
2023-01-20T04:51:06.943Z,82.32
2023-01-20T04:53:33.865Z,85.40
2023-01-20T04:56:00.531Z,73.55
2023-01-20T04:58:27.069Z,70.20
2023-01-20T05:00:53.722Z,73.28
2023-01-20T05:03:20.223Z,70.53
2023-01-20T05:05:54.179Z,70.25
2023-01-20T05:08:20.848Z,86.88
2023-01-20T05:10:47.465Z,76.47
2023-01-20T05:13:14.099Z,68.68
2023-01-20T05:15:41.141Z,69.00
2023-01-20T05:18:07.785Z,72.82
2023-01-20T05:20:34.283Z,67.88
2023-01-20T05:23:01.556Z,63.13
2023-01-20T05:25:28.620Z,65.82
2023-01-20T05:27:55.120Z,69.22
2023-01-20T05:30:21.678Z,65.55
2023-01-20T05:32:51.892Z,63.17
2023-01-20T05:35:18.528Z,62.73
2023-01-20T05:37:45.082Z,63.13
2023-01-20T05:40:12.621Z,59.72
2023-01-20T05:42:39.414Z,58.28
2023-01-20T05:45:07.639Z,66.57
2023-01-20T05:47:34.090Z,66.90
2023-01-20T05:50:00.661Z,68.70
2023-01-20T05:52:27.232Z,63.70
2023-01-20T05:54:53.779Z,70.80
2023-01-20T05:57:20.308Z,58.22
2023-01-20T05:59:51.292Z,64.75
2023-01-20T06:02:19.408Z,61.70
2023-01-20T06:04:46.736Z,68.32
2023-01-20T06:07:13.988Z,62.13
2023-01-20T06:09:40.840Z,63.42
2023-01-20T06:12:08.166Z,64.63
2023-01-20T06:14:34.664Z,60.05
2023-01-20T06:17:01.132Z,65.45
2023-01-20T06:19:27.696Z,64.60
2023-01-20T06:21:54.187Z,58.85
2023-01-20T06:24:20.669Z,70.55
2023-01-20T06:26:50.319Z,66.97
2023-01-20T06:29:16.866Z,53.50
2023-01-20T06:31:45.046Z,59.15
2023-01-20T06:34:12.176Z,60.85
2023-01-20T06:36:38.842Z,64.50
2023-01-20T06:39:05.416Z,65.28
2023-01-20T06:41:32.082Z,62.92
2023-01-20T06:43:58.583Z,62.83
2023-01-20T06:46:25.173Z,66.53
2023-01-20T06:48:52.123Z,60.40
2023-01-20T06:51:19.983Z,60.70
2023-01-20T06:53:47.459Z,60.05
2023-01-20T06:56:15.216Z,60.33
2023-01-20T06:58:41.938Z,63.58
2023-01-20T07:01:12.119Z,67.53
2023-01-20T07:03:38.713Z,51.13
2023-01-20T07:06:34.186Z,67.07
2023-01-20T07:09:01.453Z,57.38
2023-01-20T07:11:28.888Z,69.95
2023-01-20T07:13:55.422Z,59.80
2023-01-20T07:16:21.974Z,58.42
2023-01-20T07:18:50.176Z,60.47
2023-01-20T07:21:17.473Z,60.00
2023-01-20T07:23:45.027Z,63.40
2023-01-20T07:26:14.291Z,66.38
2023-01-20T07:28:41.001Z,61.25
2023-01-20T07:31:13.286Z,58.83
2023-01-20T07:33:40.062Z,64.20
2023-01-20T07:36:07.803Z,56.42
2023-01-20T07:38:34.555Z,64.78
2023-01-20T07:41:04.950Z,66.55
2023-01-20T07:43:32.030Z,58.65
2023-01-20T07:46:00.460Z,63.70
2023-01-20T07:48:27.815Z,58.75
2023-01-20T07:51:02.608Z,50.88
2023-01-20T07:53:30.071Z,58.00
2023-01-20T07:55:56.911Z,55.05
2023-01-20T07:58:23.409Z,55.80
2023-01-20T08:00:50.007Z,59.53
2023-01-20T08:03:16.717Z,63.83
2023-01-20T08:05:43.482Z,57.60
2023-01-20T08:08:10.023Z,63.97
2023-01-20T08:10:37.097Z,58.30
2023-01-20T08:13:03.803Z,57.90
2023-01-20T08:15:30.347Z,60.38
2023-01-20T08:17:59.278Z,59.65
2023-01-20T08:20:27.125Z,57.22
2023-01-20T08:22:53.746Z,47.50
2023-01-20T08:25:20.307Z,56.15
2023-01-20T08:27:48.675Z,55.35
2023-01-20T08:30:15.404Z,49.50
2023-01-20T08:32:41.958Z,59.72
2023-01-20T08:35:08.718Z,56.13
2023-01-20T08:37:38.051Z,49.53
2023-01-20T08:40:09.668Z,51.30
2023-01-20T08:42:37.498Z,54.15
2023-01-20T08:45:06.692Z,48.80
2023-01-20T08:47:37.468Z,49.65
2023-01-20T08:50:05.865Z,52.67
2023-01-20T08:52:32.809Z,61.38
2023-01-20T08:54:59.370Z,48.05
2023-01-20T08:57:26.710Z,55.35
2023-01-20T08:59:54.283Z,45.72
2023-01-20T09:02:21.022Z,48.03
2023-01-20T09:04:49.692Z,50.00
2023-01-20T09:07:17.235Z,52.10
2023-01-20T09:09:43.864Z,47.97
2023-01-20T09:12:10.539Z,47.97
2023-01-20T09:14:37.012Z,52.75
2023-01-20T09:17:03.580Z,58.50
2023-01-20T09:19:30.205Z,49.42
2023-01-20T09:21:56.987Z,45.10
2023-01-20T09:24:23.596Z,45.00
2023-01-20T09:26:50.528Z,55.15
2023-01-20T09:29:19.507Z,54.78
2023-01-20T09:31:50.052Z,53.35
2023-01-20T09:34:21.674Z,50.33
2023-01-20T09:36:55.393Z,47.55
2023-01-20T09:39:40.486Z,44.88
2023-01-20T09:42:45.855Z,45.88
2023-01-20T09:45:26.040Z,46.53
2023-01-20T09:48:03.933Z,42.00
2023-01-20T09:51:10.543Z,51.13
2023-01-20T09:53:42.800Z,45.58
2023-01-20T09:56:13.586Z,38.75
2023-01-20T09:58:46.979Z,47.05
2023-01-20T10:01:31.991Z,44.75
2023-01-20T10:04:15.064Z,46.53
2023-01-20T10:06:44.507Z,45.78
2023-01-20T10:09:46.195Z,44.40
2023-01-20T10:12:22.218Z,40.40
2023-01-20T10:14:50.732Z,40.38
2023-01-20T10:17:24.488Z,42.47
2023-01-20T10:19:58.987Z,48.65
2023-01-20T10:22:36.927Z,36.25
2023-01-20T10:25:09.758Z,41.08
2023-01-20T10:27:39.476Z,36.30
2023-01-20T10:30:11.122Z,39.00
2023-01-20T10:32:47.639Z,41.65
2023-01-20T10:35:20.016Z,39.63
2023-01-20T10:37:46.576Z,31.58
2023-01-20T10:40:25.482Z,38.85
2023-01-20T10:42:56.818Z,34.70
2023-01-20T10:45:41.852Z,34.72
2023-01-20T10:48:26.800Z,36.22
2023-01-20T10:51:17.827Z,40.65
2023-01-20T10:53:54.003Z,35.88
2023-01-20T10:56:39.042Z,33.80
2023-01-20T10:59:31.916Z,34.65
2023-01-20T11:02:11.908Z,32.72
2023-01-20T11:04:39.114Z,32.53
2023-01-20T11:07:08.613Z,35.20
2023-01-20T11:09:37.605Z,33.95
2023-01-20T11:12:09.960Z,30.48
2023-01-20T11:14:36.561Z,29.20
2023-01-20T11:17:06.592Z,38.63
2023-01-20T11:19:56.672Z,30.23
2023-01-20T11:22:31.760Z,27.05
2023-01-20T11:24:59.463Z,27.00
2023-01-20T11:27:29.723Z,38.20
2023-01-20T11:29:59.353Z,31.87
2023-01-20T11:32:36.956Z,31.30
2023-01-20T11:35:21.298Z,30.02
2023-01-20T11:37:47.834Z,31.33
2023-01-20T11:40:20.171Z,26.40
2023-01-20T11:42:48.662Z,23.52
2023-01-20T11:45:34.418Z,28.38
2023-01-20T11:48:02.749Z,28.90
2023-01-20T11:50:31.909Z,23.85
2023-01-20T11:53:19.388Z,22.83
2023-01-20T11:56:03.413Z,26.75
2023-01-20T11:58:57.555Z,26.00
2023-01-20T12:01:48.932Z,23.27
2023-01-20T12:04:27.215Z,23.80
2023-01-20T12:06:58.374Z,24.75
2023-01-20T12:09:45.652Z,23.10
2023-01-20T12:12:27.560Z,19.80
2023-01-20T12:15:11.242Z,24.58
2023-01-20T12:17:40.591Z,27.25
2023-01-20T12:20:18.955Z,31.15
2023-01-20T12:22:55.414Z,28.33
2023-01-20T12:25:25.914Z,25.63
2023-01-20T12:28:04.535Z,24.90
2023-01-20T12:30:38.415Z,22.83
2023-01-20T12:33:05.519Z,29.13
2023-01-20T12:35:40.052Z,24.00
2023-01-20T12:38:07.767Z,31.05
2023-01-20T12:41:00.969Z,30.60
2023-01-20T12:43:36.250Z,30.88
2023-01-20T12:46:17.905Z,24.50
2023-01-20T12:48:53.887Z,21.83
2023-01-20T12:51:50.477Z,28.20
2023-01-20T12:54:49.215Z,26.90
2023-01-20T12:57:25.915Z,19.08
2023-01-20T13:00:22.148Z,24.30
2023-01-20T13:03:17.455Z,26.70
2023-01-20T13:06:08.270Z,33.63
2023-01-20T13:08:58.226Z,27.85
2023-01-20T13:11:46.059Z,26.67
2023-01-20T13:14:20.663Z,24.30
2023-01-20T13:17:05.382Z,21.52
2023-01-20T13:19:37.732Z,27.65
2023-01-20T13:22:17.918Z,30.40
2023-01-20T13:24:46.818Z,32.72
2023-01-20T13:27:14.481Z,26.95
2023-01-20T13:29:55.120Z,24.95
2023-01-20T13:32:27.555Z,20.25
2023-01-20T13:34:54.280Z,14.38
2023-01-20T13:37:26.653Z,16.00
2023-01-20T13:39:54.799Z,14.15
2023-01-20T13:42:37.406Z,16.48
2023-01-20T13:45:17.344Z,19.65
2023-01-20T13:48:05.517Z,12.15
2023-01-20T13:50:42.972Z,9.63
2023-01-20T13:53:28.148Z,9.80
2023-01-20T13:56:27.959Z,13.05
2023-01-20T13:58:55.736Z,11.77
2023-01-20T14:01:22.260Z,11.85
2023-01-20T14:04:05.890Z,12.50
2023-01-20T14:06:35.458Z,11.63
2023-01-20T14:09:02.631Z,11.70
2023-01-20T14:11:31.195Z,14.10
2023-01-20T14:14:02.649Z,13.15
2023-01-20T14:16:35.834Z,14.05
2023-01-20T14:19:18.739Z,16.50
2023-01-20T14:21:45.654Z,14.02
2023-01-20T14:24:32.985Z,17.55
2023-01-20T14:27:15.027Z,18.20
2023-01-20T14:29:41.535Z,20.38
2023-01-20T14:32:28.564Z,18.27
2023-01-20T14:34:56.273Z,19.02
2023-01-20T14:37:28.209Z,19.38
2023-01-20T14:39:58.390Z,20.08
2023-01-20T14:42:27.466Z,22.30
2023-01-20T14:44:56.306Z,23.02
2023-01-20T14:47:24.732Z,23.90
2023-01-20T14:49:52.810Z,31.23
2023-01-20T14:52:31.396Z,26.00
2023-01-20T14:55:00.197Z,30.17
2023-01-20T14:57:34.158Z,30.58
2023-01-20T15:00:12.640Z,33.92
2023-01-20T15:02:40.733Z,33.03
2023-01-20T15:05:20.734Z,33.00
2023-01-20T15:07:47.407Z,31.27
2023-01-20T15:10:18.060Z,31.98
2023-01-20T15:12:47.932Z,30.40
2023-01-20T15:15:21.718Z,28.52
2023-01-20T15:18:17.475Z,25.10
2023-01-20T15:20:48.782Z,30.98
2023-01-20T15:23:31.866Z,25.52
2023-01-20T15:26:09.555Z,22.98
2023-01-20T15:28:43.455Z,29.58
2023-01-20T15:31:15.085Z,26.60
2023-01-20T15:33:41.999Z,27.75
2023-01-20T15:36:36.919Z,28.15
2023-01-20T15:39:03.495Z,26.48
2023-01-20T15:41:30.001Z,30.55
2023-01-20T15:43:56.530Z,25.48
2023-01-20T15:46:24.770Z,24.75
2023-01-20T15:48:51.314Z,28.67
2023-01-20T15:51:20.132Z,33.50
2023-01-20T15:53:47.660Z,28.25
2023-01-20T15:56:21.740Z,29.58
2023-01-20T15:58:48.886Z,26.55
2023-01-20T16:01:17.706Z,24.77
2023-01-20T16:03:44.445Z,29.98
2023-01-20T16:06:19.332Z,26.48
2023-01-20T16:08:48.183Z,32.08
2023-01-20T16:11:16.801Z,24.95
2023-01-20T16:13:43.716Z,23.60
2023-01-20T16:16:13.608Z,26.27
2023-01-20T16:18:40.820Z,23.13
2023-01-20T16:21:08.217Z,21.05
2023-01-20T16:23:34.725Z,20.48
2023-01-20T16:26:01.379Z,16.27
2023-01-20T16:28:27.950Z,20.65
2023-01-20T16:30:57.411Z,23.10
2023-01-20T16:33:25.564Z,23.50
2023-01-20T16:35:53.906Z,27.35
2023-01-20T16:38:23.303Z,22.33
2023-01-20T16:40:59.149Z,19.13
2023-01-20T16:43:25.700Z,19.98
2023-01-20T16:45:54.362Z,22.25
2023-01-20T16:48:22.513Z,25.25
2023-01-20T16:50:49.713Z,23.65
2023-01-20T16:53:17.286Z,24.83
2023-01-20T16:55:47.759Z,18.40
2023-01-20T16:58:15.062Z,23.98
2023-01-20T17:00:42.284Z,21.98
2023-01-20T17:03:09.034Z,22.85
2023-01-20T17:05:35.554Z,23.15
2023-01-20T17:08:02.374Z,19.77
2023-01-20T17:10:30.419Z,24.05
2023-01-20T17:12:57.371Z,21.42
2023-01-20T17:15:24.816Z,29.27
2023-01-20T17:17:54.516Z,22.48
2023-01-20T17:20:21.591Z,28.45
2023-01-20T17:22:48.228Z,23.25
2023-01-20T17:25:17.913Z,25.85
2023-01-20T17:27:45.062Z,20.23
2023-01-20T17:30:11.764Z,22.60
2023-01-20T17:32:38.401Z,30.15
2023-01-20T17:35:05.333Z,26.25
2023-01-20T17:37:32.079Z,27.83
2023-01-20T17:40:00.299Z,23.85
2023-01-20T17:42:26.894Z,24.52
2023-01-20T17:44:53.429Z,23.20
2023-01-20T17:47:20.537Z,27.52
2023-01-20T17:49:47.160Z,24.38
2023-01-20T17:52:13.661Z,27.15
2023-01-20T17:54:40.129Z,26.25
2023-01-20T17:57:06.660Z,29.90
2023-01-20T17:59:33.216Z,24.15
2023-01-20T18:01:59.831Z,34.00
2023-01-20T18:04:26.438Z,25.20
2023-01-20T18:06:52.928Z,27.58
2023-01-20T18:09:19.461Z,30.60
2023-01-20T18:11:46.007Z,30.80
2023-01-20T18:14:13.054Z,33.17
2023-01-20T18:16:41.706Z,26.42
2023-01-20T18:19:11.394Z,28.50
2023-01-20T18:21:38.425Z,38.70
2023-01-20T18:24:07.317Z,35.92
2023-01-20T18:26:35.267Z,38.28
2023-01-20T18:29:21.156Z,27.38
2023-01-20T18:31:47.892Z,32.13
2023-01-20T18:34:15.683Z,39.17
2023-01-20T18:36:46.912Z,29.83
2023-01-20T18:39:15.968Z,34.50
2023-01-20T18:41:42.581Z,33.55
2023-01-20T18:44:09.693Z,37.67
2023-01-20T18:46:36.648Z,27.73
2023-01-20T18:49:04.482Z,28.25
2023-01-20T18:51:33.496Z,27.67
2023-01-20T18:54:04.726Z,26.38
2023-01-20T18:56:33.225Z,30.83
2023-01-20T18:59:00.450Z,32.53
2023-01-20T19:01:29.714Z,29.30
2023-01-20T19:03:56.768Z,33.95
2023-01-20T19:06:28.448Z,29.50
2023-01-20T19:08:58.895Z,38.03
2023-01-20T19:11:28.693Z,33.03
2023-01-20T19:13:55.504Z,29.45
2023-01-20T19:16:23.988Z,35.40
2023-01-20T19:18:53.222Z,32.20
2023-01-20T19:21:20.670Z,34.58
2023-01-20T19:23:55.792Z,32.80
2023-01-20T19:26:23.945Z,37.60
2023-01-20T19:29:02.476Z,32.92
2023-01-20T19:31:30.879Z,34.50
2023-01-20T19:33:57.723Z,28.92
2023-01-20T19:36:24.847Z,35.10
2023-01-20T19:38:51.672Z,37.15
2023-01-20T19:41:21.088Z,31.98
2023-01-20T19:43:47.690Z,36.65
2023-01-20T19:46:17.396Z,36.95
2023-01-20T19:48:44.594Z,35.08
2023-01-20T19:51:13.551Z,37.15
2023-01-20T19:53:40.793Z,38.42
2023-01-20T19:56:12.958Z,32.67
2023-01-20T19:58:39.973Z,37.30
2023-01-20T20:01:11.367Z,44.42
2023-01-20T20:03:38.065Z,46.65
2023-01-20T20:06:06.588Z,33.75
2023-01-20T20:08:33.563Z,34.60
2023-01-20T20:11:00.107Z,29.55
2023-01-20T20:13:26.634Z,35.78
2023-01-20T20:16:00.871Z,41.10
2023-01-20T20:18:27.800Z,42.92
2023-01-20T20:20:54.333Z,33.15
2023-01-20T20:23:21.159Z,38.50
2023-01-20T20:25:55.824Z,37.22
2023-01-20T20:28:23.773Z,38.28
2023-01-20T20:30:50.932Z,35.97
2023-01-20T20:33:18.555Z,32.47
2023-01-20T20:35:45.216Z,29.80
2023-01-20T20:38:11.721Z,32.67
2023-01-20T20:40:38.274Z,34.53
2023-01-20T20:43:04.806Z,34.70
2023-01-20T20:45:31.434Z,38.10
2023-01-20T20:47:59.030Z,32.70
2023-01-20T20:50:27.203Z,36.33
2023-01-20T20:52:53.910Z,37.15
2023-01-20T20:55:20.560Z,37.20
2023-01-20T20:57:47.142Z,39.90
2023-01-20T21:00:15.964Z,36.92
2023-01-20T21:02:43.842Z,39.03
2023-01-20T21:05:10.443Z,35.35
2023-01-20T21:07:36.922Z,39.63
2023-01-20T21:10:04.959Z,38.25
2023-01-20T21:12:32.659Z,30.40
2023-01-20T21:14:59.193Z,39.65
2023-01-20T21:17:25.732Z,41.05
2023-01-20T21:19:52.558Z,39.47
2023-01-20T21:22:19.838Z,36.63
2023-01-20T21:24:46.353Z,43.55
2023-01-20T21:27:13.298Z,41.70
2023-01-20T21:29:39.836Z,34.40
2023-01-20T21:32:06.446Z,44.92
2023-01-20T21:34:33.012Z,45.33
2023-01-20T21:36:59.817Z,44.63
2023-01-20T21:39:26.389Z,43.15
2023-01-20T21:41:52.858Z,48.38
2023-01-20T21:44:28.222Z,43.63
2023-01-20T21:47:07.945Z,50.40
2023-01-20T21:49:53.366Z,41.03
2023-01-20T21:52:41.007Z,46.63
2023-01-20T21:55:19.193Z,49.58
2023-01-20T21:57:46.905Z,47.47
2023-01-20T22:00:15.277Z,48.30
2023-01-20T22:02:46.759Z,50.60
2023-01-20T22:05:13.503Z,45.83
2023-01-20T22:07:40.036Z,48.03
2023-01-20T22:10:07.708Z,58.15
2023-01-20T22:12:35.543Z,54.70
2023-01-20T22:15:03.373Z,56.03
2023-01-20T22:17:30.463Z,46.05
2023-01-20T22:19:56.974Z,51.42
2023-01-20T22:22:23.523Z,38.53
2023-01-20T22:24:50.159Z,57.42
2023-01-20T22:27:16.914Z,53.38
2023-01-20T22:29:43.448Z,58.78
2023-01-20T22:32:10.021Z,56.22
2023-01-20T22:34:36.510Z,51.00
2023-01-20T22:37:03.041Z,55.67
2023-01-20T22:39:29.597Z,55.03
2023-01-20T22:41:56.238Z,54.78
2023-01-20T22:44:22.818Z,52.08
2023-01-20T22:46:49.373Z,55.85
2023-01-20T22:49:15.959Z,53.70
2023-01-20T22:51:42.558Z,61.63
2023-01-20T22:54:10.608Z,65.63
2023-01-20T22:56:38.844Z,61.70
2023-01-20T22:59:05.480Z,57.58
2023-01-20T23:01:33.599Z,61.95
2023-01-20T23:04:02.166Z,62.40
2023-01-20T23:06:31.651Z,60.55
2023-01-20T23:08:59.302Z,67.05
2023-01-20T23:11:26.037Z,66.85
2023-01-20T23:13:53.019Z,72.07
2023-01-20T23:16:22.342Z,63.95
2023-01-20T23:18:50.316Z,52.78
2023-01-20T23:21:17.061Z,65.20
2023-01-20T23:23:43.737Z,66.63
2023-01-20T23:26:17.425Z,68.40
2023-01-20T23:28:44.712Z,64.00
2023-01-20T23:31:12.929Z,64.20
2023-01-20T23:33:40.837Z,67.82
2023-01-20T23:36:12.985Z,65.82
2023-01-20T23:38:39.747Z,72.38
2023-01-20T23:41:06.328Z,75.45
2023-01-20T23:43:33.180Z,67.85
2023-01-20T23:46:01.608Z,69.47
2023-01-20T23:48:28.967Z,67.40
2023-01-20T23:50:56.445Z,68.60
2023-01-20T23:53:23.117Z,70.30
2023-01-20T23:55:49.665Z,67.50
2023-01-20T23:58:16.206Z,79.85
